»·PEaware :: N6750H KMYL-KMSO

N6750H :: KMYL-KMSO

FLIGHT INFORMATION

Flight Status: Arrived
Operator: Privately registered:
United States
More flights under this callsign
Pilot: Yoel G. (22311)
Aircraft: Unknown
(DA62)
More flights by this aircraft type
Origin: KMYL McCall
United States
Destination: KMSO Missoula Intl
United States
More flights between these airports :: More routes between these airports
Route: +PEPUC JIROS
File this flight plan on PilotEdge
Remarks:
Altitude:
(Current/Filed)
13,000ft
Speed:
(Current/Filed)
201kts
Departed: 07-Jan-19 09:42 AM
Arrived: 07-Jan-19 10:51 AM
Distance/Time
Traveled:
148nm/1:09
Distance/Time
To Go:
Arrived

Flight Plot

Page will automatically refresh every two minutes.

Flight plan parsing failed; only flown route is shown


Map Options




Map Legend


Flown Route
Filed Route
Departure Airport
Arrival Airport
Navaid (VOR, NDB)
Fix

Horizontal Profiles

Position Reports

Time Latitude Longitude Heading Altitude Ground
Speed
07-Jan-19 09:33 44.896545 -116.098831 266 5032ft 0kts
07-Jan-19 09:33 44.896545 -116.098831 266 5032ft 0kts
07-Jan-19 09:34 44.896545 -116.098831 266 5032ft 0kts
07-Jan-19 09:36 44.896545 -116.098831 266 5032ft 0kts
07-Jan-19 09:37 44.896545 -116.098831 266 5032ft 0kts
07-Jan-19 09:37 44.896545 -116.098831 266 5032ft 0kts
07-Jan-19 09:38 44.896545 -116.098831 266 5032ft 0kts
07-Jan-19 09:39 44.896814 -116.100184 268 5030ft 15kts
07-Jan-19 09:40 44.896797 -116.101263 270 5028ft 0kts
07-Jan-19 09:41 44.889474 -116.101804 178 5013ft 105kts
07-Jan-19 09:42 44.858247 -116.099528 174 6385ft 110kts
07-Jan-19 09:43 44.827578 -116.094191 174 7726ft 114kts
07-Jan-19 09:44 44.795860 -116.090680 183 8995ft 115kts
07-Jan-19 09:45 44.763908 -116.087523 184 10258ft 116kts
07-Jan-19 09:46 44.731981 -116.083957 186 11531ft 114kts
07-Jan-19 09:47 44.702917 -116.069551 110 12735ft 135kts
07-Jan-19 09:48 44.727398 -116.042774 344 12958ft 153kts
07-Jan-19 09:49 44.774147 -116.036070 8 12945ft 183kts
07-Jan-19 09:50 44.822527 -116.008425 14 12944ft 189kts
07-Jan-19 09:51 44.870526 -115.977605 15 12944ft 190kts
07-Jan-19 09:52 44.918836 -115.946193 15 12944ft 190kts
07-Jan-19 09:53 44.966979 -115.914799 15 12944ft 190kts
07-Jan-19 09:54 45.015181 -115.883293 15 12944ft 191kts
07-Jan-19 09:55 45.063657 -115.851563 14 12944ft 192kts
07-Jan-19 09:56 45.112332 -115.819643 14 12946ft 193kts
07-Jan-19 09:57 45.161323 -115.787470 14 12946ft 194kts
07-Jan-19 09:58 45.210637 -115.755008 14 12946ft 195kts
07-Jan-19 09:59 45.259802 -115.722580 14 12947ft 195kts
07-Jan-19 10:00 45.308821 -115.690188 14 12952ft 195kts
07-Jan-19 10:01 45.358077 -115.657577 14 12963ft 195kts
07-Jan-19 10:02 45.407174 -115.625010 14 12974ft 195kts
07-Jan-19 10:03 45.456602 -115.592159 14 12984ft 196kts
07-Jan-19 10:04 45.506121 -115.559181 14 12984ft 196kts
07-Jan-19 10:05 45.555632 -115.526142 14 12984ft 196kts
07-Jan-19 10:06 45.605080 -115.493086 14 12984ft 196kts
07-Jan-19 10:07 45.654745 -115.459817 14 12984ft 196kts
07-Jan-19 10:08 45.704170 -115.426644 14 12984ft 196kts
07-Jan-19 10:09 45.753831 -115.393255 14 12967ft 197kts
07-Jan-19 10:10 45.803385 -115.359857 14 12966ft 197kts
07-Jan-19 10:11 45.852967 -115.326379 15 12960ft 196kts
07-Jan-19 10:12 45.902170 -115.293100 15 12993ft 195kts
07-Jan-19 10:13 45.951563 -115.259625 15 12997ft 197kts
07-Jan-19 10:14 45.995336 -115.229895 15 12997ft 197kts
07-Jan-19 10:15 46.045176 -115.195982 15 12997ft 197kts
07-Jan-19 10:16 46.094914 -115.162070 15 12996ft 198kts
07-Jan-19 10:17 46.144730 -115.128045 15 12984ft 198kts
07-Jan-19 10:18 46.194749 -115.093811 15 12958ft 199kts
07-Jan-19 10:19 46.244752 -115.059519 15 12918ft 199kts
07-Jan-19 10:20 46.294919 -115.025039 15 12887ft 199kts
07-Jan-19 10:21 46.344917 -114.990607 15 12866ft 199kts
07-Jan-19 10:22 46.394830 -114.956164 15 12845ft 199kts
07-Jan-19 10:23 46.444192 -114.922007 14 12963ft 195kts
07-Jan-19 10:24 46.493731 -114.887715 15 12964ft 198kts
07-Jan-19 10:25 46.543585 -114.853096 15 12964ft 198kts
07-Jan-19 10:26 46.593396 -114.818439 15 12964ft 199kts
07-Jan-19 10:27 46.643509 -114.793786 354 12944ft 187kts
07-Jan-19 10:28 46.692296 -114.755249 17 12964ft 200kts
07-Jan-19 10:29 46.741521 -114.717703 16 12964ft 200kts
07-Jan-19 10:30 46.791060 -114.680670 16 12964ft 199kts
07-Jan-19 10:31 46.837254 -114.684383 339 12964ft 177kts
07-Jan-19 10:32 46.886966 -114.692704 346 12964ft 181kts
07-Jan-19 10:33 46.941387 -114.691865 354 12264ft 201kts
07-Jan-19 10:34 46.995512 -114.680481 1 12082ft 196kts
07-Jan-19 10:35 47.048454 -114.658676 8 11911ft 199kts
07-Jan-19 10:36 47.101285 -114.625111 18 11329ft 218kts
07-Jan-19 10:37 47.151647 -114.571316 69 10558ft 235kts
07-Jan-19 10:38 47.140309 -114.480699 117 10134ft 219kts
07-Jan-19 10:39 47.106495 -114.417544 138 8558ft 167kts
07-Jan-19 10:40 47.078969 -114.370638 139 7861ft 143kts
07-Jan-19 10:41 47.053700 -114.327563 139 7132ft 136kts
07-Jan-19 10:42 47.029739 -114.286439 138 6402ft 128kts
07-Jan-19 10:43 47.007301 -114.247863 137 5713ft 121kts
07-Jan-19 10:44 46.989374 -114.216984 138 5205ft 84kts
07-Jan-19 10:45 46.975008 -114.192458 138 4738ft 79kts
07-Jan-19 10:46 46.960793 -114.168096 137 4306ft 78kts
07-Jan-19 10:47 46.946606 -114.143816 136 3880ft 86kts
07-Jan-19 10:48 46.928078 -114.111670 133 3307ft 108kts
07-Jan-19 10:49 46.912874 -114.086100 132 3199ft 44kts
07-Jan-19 10:50 46.913242 -114.084340 41 3199ft 0kts
07-Jan-19 10:51 46.913242 -114.084340 41 3199ft 0kts
07-Jan-19 10:52 46.915379 -114.079984 88 3200ft 19kts
07-Jan-19 10:53 46.915330 -114.077923 226 3200ft 5kts
07-Jan-19 10:54 46.914970 -114.079545 264 3199ft 0kts

Navigation Log

Ident Type
Flight plan parsing failed, navigation log unavailable